| Pilot: | GLD1793 Tiago I. | Aircraft: | ATCCOM.ATC_NAME_BEECHCR | Distance: | 15NM |
| From: | TVSB | To: | TVSA | Duration: | 0.23 |
| Validation: | Valid | Tipo: | Charter | Tail Number: | PT-GLD |
| ZFW: | 4324 | Block Fuel/Init FOB | 156flight_details.php/147 | Flight Fuel | 156 |
| Passengers: | 5 | Cargo: | 0 | Alternate: | TTPP |
| Departure Time: | 1959 | Cruise Speed: | 194 | Flight Level: | FL350 |
| Flight Type: | IFR | Aircraft Type: | BE58 | Weight Unit: | Kg |
| Date: | 03/05/2026 | Comments: | GOLD ACARS | Network: | VATSIM |
| Crash: | No | Validator Comments: | Rating | 100 |
| ROUTE | DCT GUDAS DCT KESBI DCT LERIT DCT UKREK DCT |
| REMARKS | OPR/GOLD VIRTUAL AIRLINES PER/C RMK/FROM TVSB RMK/PIC GLD1793 |
| Crash | OK | Beacon Lights off with engine on | OK | Speed above 250KIAS below 10.000ft | OK |
| Landing Lights OFF below 10.000ft | OK | Landing Lights ON above 10.000ft | OK | Stall | OK |
| Overspeed | OK | Pause | OK | Refuel | OK |
| Slew | OK | Taxi Lights OFF during taxi | OK | Land Lights OFF during take off | OK |
| Landing Lights OFF during landing | OK | Landed in not planned airfield | OK | Taxi speed above 25 kt | OK |
| Incorrect QNH during take off | OK | Incorrect QNH during landing | OK |
| Wind: | 50º/12 kt | Heading: | 27 |
| VS: | -144 ft/min | IAS: | 72 kt |
| Gforce: | 1.184 G | Bank: | 1.42 |
| Pitch | 3.84 | Flaps | 100 |
| Nav Lights | ON | Landing Lights | ON |
| Beacon Lights | ON | Strobe Lights | ON |
| DATE | EVENT | IAS | ALTITUDE |
|---|---|---|---|
| 2026-05-03 19:59:13 | GOLD ACARS VERSION 3.3.7.0 | 0 | 0 |
| 2026-05-03 19:59:13 | BOARDING | 0 | 13 |
| 2026-05-03 19:59:13 | FLAP 100% | 0 | 13 |
| 2026-05-03 19:59:37 | BCN LIGHTS ON | 0 | 13 |
| 2026-05-03 19:59:38 | NAV LIGHTS ON | 0 | 13 |
| 2026-05-03 19:59:38 | STB LIGHTS ON | 0 | 13 |
| 2026-05-03 19:59:39 | LND LIGHTS ON | 0 | 13 |
| 2026-05-03 19:59:40 | TAXI LIGHTS ON | 0 | 13 |
| 2026-05-03 20:00:29 | STARTING ENGINE 1 | 0 | 11 |
| 2026-05-03 20:00:41 | STARTING ENGINE 2 | 0 | 11 |
| 2026-05-03 20:01:44 | TAXI TO THE RWY | 0 | 11 |
| 2026-05-03 20:02:15 | FLAP 50% | 1 | 13 |
| 2026-05-03 20:02:15 | FLAP 0% | 1 | 13 |
| 2026-05-03 20:02:17 | FLAP 50% | 0 | 13 |
| 2026-05-03 20:02:42 | CLIMBING | 111 | 52 |
| 2026-05-03 20:02:52 | GEAR UP | 119 | 194 |
| 2026-05-03 20:02:56 | FLAP 0% | 122 | 255 |
| 2026-05-03 20:02:59 | AP ENGAGED | 126 | 310 |
| 2026-05-03 20:03:02 | CRUISE | 136 | 353 |
| 2026-05-03 20:03:14 | CLIMBING | 157 | 408 |
| 2026-05-03 20:03:47 | CRUISE | 171 | 789 |
| 2026-05-03 20:06:24 | AP DISENGAGED | 199 | 802 |
| 2026-05-03 20:06:30 | LANDING | 190 | 794 |
| 2026-05-03 20:06:46 | GEAR DOWN | 151 | 563 |
| 2026-05-03 20:06:50 | FLAP 50% | 143 | 509 |
| 2026-05-03 20:07:11 | FLAP 100% | 116 | 306 |
| 2026-05-03 20:07:59 | LANDED AIRPORT [TVSA] | 72 | 120 |
| 2026-05-03 20:07:59 | LANDED - VS: -144 ft/min | 72 | 118 |
| 2026-05-03 20:08:11 | TAXI TO THE GATE | 29 | 107 |
| 2026-05-03 20:08:41 | FLAP 50% | 4 | 103 |
| 2026-05-03 20:08:42 | FLAP 0% | 4 | 103 |
| 2026-05-03 20:12:37 | AT THE GATE | 0 | 92 |
| 2026-05-03 20:12:42 | STOPPING ENGINE 1 | 0 | 92 |
| 2026-05-03 20:12:43 | STOPPING ENGINE 2 | 0 | 92 |
| 2026-05-03 20:12:53 | LND LIGHTS OFF | 0 | 92 |
| 2026-05-03 20:12:55 | STB LIGHTS OFF | 0 | 92 |
| 2026-05-03 20:12:56 | TAXI LIGHTS OFF | 0 | 92 |
| 2026-05-03 20:12:57 | NAV LIGHTS OFF | 0 | 92 |
| 2026-05-03 20:13:00 | BCN LIGHTS OFF | 0 | 92 |
| 2026-05-03 20:13:00 | FLIGHT FINISHED | 0 | 92 |
| 2026-05-03 19:59:13 | GOLD ACARS VERSION 3.3.7.0 | 0 | 0 |
| 2026-05-03 19:59:13 | BOARDING | 0 | 13 |
| 2026-05-03 19:59:13 | FLAP 100% | 0 | 13 |
| 2026-05-03 19:59:37 | BCN LIGHTS ON | 0 | 13 |
| 2026-05-03 19:59:38 | NAV LIGHTS ON | 0 | 13 |
| 2026-05-03 19:59:38 | STB LIGHTS ON | 0 | 13 |
| 2026-05-03 19:59:39 | LND LIGHTS ON | 0 | 13 |
| 2026-05-03 19:59:40 | TAXI LIGHTS ON | 0 | 13 |
| 2026-05-03 20:00:29 | STARTING ENGINE 1 | 0 | 11 |
| 2026-05-03 20:00:41 | STARTING ENGINE 2 | 0 | 11 |
| 2026-05-03 20:01:44 | TAXI TO THE RWY | 0 | 11 |
| 2026-05-03 20:02:15 | FLAP 50% | 1 | 13 |
| 2026-05-03 20:02:15 | FLAP 0% | 1 | 13 |
| 2026-05-03 20:02:17 | FLAP 50% | 0 | 13 |
| 2026-05-03 20:02:42 | CLIMBING | 111 | 52 |
| 2026-05-03 20:02:52 | GEAR UP | 119 | 194 |
| 2026-05-03 20:02:56 | FLAP 0% | 122 | 255 |
| 2026-05-03 20:02:59 | AP ENGAGED | 126 | 310 |
| 2026-05-03 20:03:02 | CRUISE | 136 | 353 |
| 2026-05-03 20:03:14 | CLIMBING | 157 | 408 |
| 2026-05-03 20:03:47 | CRUISE | 171 | 789 |
| 2026-05-03 20:06:24 | AP DISENGAGED | 199 | 802 |
| 2026-05-03 20:06:30 | LANDING | 190 | 794 |
| 2026-05-03 20:06:46 | GEAR DOWN | 151 | 563 |
| 2026-05-03 20:06:50 | FLAP 50% | 143 | 509 |
| 2026-05-03 20:07:11 | FLAP 100% | 116 | 306 |
| 2026-05-03 20:07:59 | LANDED AIRPORT [TVSA] | 72 | 120 |
| 2026-05-03 20:07:59 | LANDED - VS: -144 ft/min | 72 | 118 |
| 2026-05-03 20:08:11 | TAXI TO THE GATE | 29 | 107 |
| 2026-05-03 20:08:41 | FLAP 50% | 4 | 103 |
| 2026-05-03 20:08:42 | FLAP 0% | 4 | 103 |
| 2026-05-03 20:12:37 | AT THE GATE | 0 | 92 |
| 2026-05-03 20:12:42 | STOPPING ENGINE 1 | 0 | 92 |
| 2026-05-03 20:12:43 | STOPPING ENGINE 2 | 0 | 92 |
| 2026-05-03 20:12:53 | LND LIGHTS OFF | 0 | 92 |
| 2026-05-03 20:12:55 | STB LIGHTS OFF | 0 | 92 |
| 2026-05-03 20:12:56 | TAXI LIGHTS OFF | 0 | 92 |
| 2026-05-03 20:12:57 | NAV LIGHTS OFF | 0 | 92 |
| 2026-05-03 20:13:00 | BCN LIGHTS OFF | 0 | 92 |
| 2026-05-03 20:13:00 | FLIGHT FINISHED | 0 | 92 |
| 2026-05-03 19:59:13 | GOLD ACARS VERSION 3.3.7.0 | 0 | 0 |
| 2026-05-03 19:59:13 | BOARDING | 0 | 13 |
| 2026-05-03 19:59:13 | FLAP 100% | 0 | 13 |
| 2026-05-03 19:59:37 | BCN LIGHTS ON | 0 | 13 |
| 2026-05-03 19:59:38 | NAV LIGHTS ON | 0 | 13 |
| 2026-05-03 19:59:38 | STB LIGHTS ON | 0 | 13 |
| 2026-05-03 19:59:39 | LND LIGHTS ON | 0 | 13 |
| 2026-05-03 19:59:40 | TAXI LIGHTS ON | 0 | 13 |
| 2026-05-03 20:00:29 | STARTING ENGINE 1 | 0 | 11 |
| 2026-05-03 20:00:41 | STARTING ENGINE 2 | 0 | 11 |
| 2026-05-03 20:01:44 | TAXI TO THE RWY | 0 | 11 |
| 2026-05-03 20:02:15 | FLAP 50% | 1 | 13 |
| 2026-05-03 20:02:15 | FLAP 0% | 1 | 13 |
| 2026-05-03 20:02:17 | FLAP 50% | 0 | 13 |
| 2026-05-03 20:02:42 | CLIMBING | 111 | 52 |
| 2026-05-03 20:02:52 | GEAR UP | 119 | 194 |
| 2026-05-03 20:02:56 | FLAP 0% | 122 | 255 |
| 2026-05-03 20:02:59 | AP ENGAGED | 126 | 310 |
| 2026-05-03 20:03:02 | CRUISE | 136 | 353 |
| 2026-05-03 20:03:14 | CLIMBING | 157 | 408 |
| 2026-05-03 20:03:47 | CRUISE | 171 | 789 |
| 2026-05-03 20:06:24 | AP DISENGAGED | 199 | 802 |
| 2026-05-03 20:06:30 | LANDING | 190 | 794 |
| 2026-05-03 20:06:46 | GEAR DOWN | 151 | 563 |
| 2026-05-03 20:06:50 | FLAP 50% | 143 | 509 |
| 2026-05-03 20:07:11 | FLAP 100% | 116 | 306 |
| 2026-05-03 20:07:59 | LANDED AIRPORT [TVSA] | 72 | 120 |
| 2026-05-03 20:07:59 | LANDED - VS: -144 ft/min | 72 | 118 |
| 2026-05-03 20:08:11 | TAXI TO THE GATE | 29 | 107 |
| 2026-05-03 20:08:41 | FLAP 50% | 4 | 103 |
| 2026-05-03 20:08:42 | FLAP 0% | 4 | 103 |
| 2026-05-03 20:12:37 | AT THE GATE | 0 | 92 |
| 2026-05-03 20:12:42 | STOPPING ENGINE 1 | 0 | 92 |
| 2026-05-03 20:12:43 | STOPPING ENGINE 2 | 0 | 92 |
| 2026-05-03 20:12:53 | LND LIGHTS OFF | 0 | 92 |
| 2026-05-03 20:12:55 | STB LIGHTS OFF | 0 | 92 |
| 2026-05-03 20:12:56 | TAXI LIGHTS OFF | 0 | 92 |
| 2026-05-03 20:12:57 | NAV LIGHTS OFF | 0 | 92 |
| 2026-05-03 20:13:00 | BCN LIGHTS OFF | 0 | 92 |
| 2026-05-03 20:13:00 | FLIGHT FINISHED | 0 | 92 |
| 2026-05-03 19:59:13 | GOLD ACARS VERSION 3.3.7.0 | 0 | 0 |
| 2026-05-03 19:59:13 | BOARDING | 0 | 13 |
| 2026-05-03 19:59:13 | FLAP 100% | 0 | 13 |
| 2026-05-03 19:59:37 | BCN LIGHTS ON | 0 | 13 |
| 2026-05-03 19:59:38 | NAV LIGHTS ON | 0 | 13 |
| 2026-05-03 19:59:38 | STB LIGHTS ON | 0 | 13 |
| 2026-05-03 19:59:39 | LND LIGHTS ON | 0 | 13 |
| 2026-05-03 19:59:40 | TAXI LIGHTS ON | 0 | 13 |
| 2026-05-03 20:00:29 | STARTING ENGINE 1 | 0 | 11 |
| 2026-05-03 20:00:41 | STARTING ENGINE 2 | 0 | 11 |
| 2026-05-03 20:01:44 | TAXI TO THE RWY | 0 | 11 |
| 2026-05-03 20:02:15 | FLAP 50% | 1 | 13 |
| 2026-05-03 20:02:15 | FLAP 0% | 1 | 13 |
| 2026-05-03 20:02:17 | FLAP 50% | 0 | 13 |
| 2026-05-03 20:02:42 | CLIMBING | 111 | 52 |
| 2026-05-03 20:02:52 | GEAR UP | 119 | 194 |
| 2026-05-03 20:02:56 | FLAP 0% | 122 | 255 |
| 2026-05-03 20:02:59 | AP ENGAGED | 126 | 310 |
| 2026-05-03 20:03:02 | CRUISE | 136 | 353 |
| 2026-05-03 20:03:14 | CLIMBING | 157 | 408 |
| 2026-05-03 20:03:47 | CRUISE | 171 | 789 |
| 2026-05-03 20:06:24 | AP DISENGAGED | 199 | 802 |
| 2026-05-03 20:06:30 | LANDING | 190 | 794 |
| 2026-05-03 20:06:46 | GEAR DOWN | 151 | 563 |
| 2026-05-03 20:06:50 | FLAP 50% | 143 | 509 |
| 2026-05-03 20:07:11 | FLAP 100% | 116 | 306 |
| 2026-05-03 20:07:59 | LANDED AIRPORT [TVSA] | 72 | 120 |
| 2026-05-03 20:07:59 | LANDED - VS: -144 ft/min | 72 | 118 |
| 2026-05-03 20:08:11 | TAXI TO THE GATE | 29 | 107 |
| 2026-05-03 20:08:41 | FLAP 50% | 4 | 103 |
| 2026-05-03 20:08:42 | FLAP 0% | 4 | 103 |
| 2026-05-03 20:12:37 | AT THE GATE | 0 | 92 |
| 2026-05-03 20:12:42 | STOPPING ENGINE 1 | 0 | 92 |
| 2026-05-03 20:12:43 | STOPPING ENGINE 2 | 0 | 92 |
| 2026-05-03 20:12:53 | LND LIGHTS OFF | 0 | 92 |
| 2026-05-03 20:12:55 | STB LIGHTS OFF | 0 | 92 |
| 2026-05-03 20:12:56 | TAXI LIGHTS OFF | 0 | 92 |
| 2026-05-03 20:12:57 | NAV LIGHTS OFF | 0 | 92 |
| 2026-05-03 20:13:00 | BCN LIGHTS OFF | 0 | 92 |
| 2026-05-03 20:13:00 | FLIGHT FINISHED | 0 | 92 |
| DATE | IAS | GS | ALTITUDE | FUEL USED | OAT | Flight Phase |
|---|---|---|---|---|---|---|
| 2026-05-03 20:00:46 | 0 | 0 | 11 | 0 | 28 | BOARDING |
| 2026-05-03 20:01:46 | 0 | 5 | 12 | 0 | 28 | BOARDING |
| 2026-05-03 20:02:47 | 116 | 111 | 87 | 1 | 28 | TAXI TO THE RWY |
| 2026-05-03 20:03:47 | 172 | 162 | 789 | 3 | 26 | CLIMBING |
| 2026-05-03 20:04:49 | 200 | 202 | 811 | 5 | 26 | CRUISE |
| 2026-05-03 20:05:49 | 203 | 198 | 805 | 7 | 26 | CRUISE |
| 2026-05-03 20:06:50 | 148 | 146 | 534 | 9 | 27 | CRUISE |
| 2026-05-03 20:07:50 | 82 | 78 | 139 | 9 | 28 | LANDING |
| 2026-05-03 20:08:51 | 6 | 4 | 103 | 9 | 28 | LANDING |
| 2026-05-03 20:09:52 | 7 | 6 | 96 | 9 | 28 | TAXI TO THE GATE |
| 2026-05-03 20:10:53 | 0 | 0 | 92 | 9 | 28 | TAXI TO THE GATE |
| 2026-05-03 20:11:54 | 0 | 4 | 89 | 9 | 28 | TAXI TO THE GATE |
| 2026-05-03 20:12:54 | 0 | 0 | 92 | 9 | 28 | TAXI TO THE GATE |
| 2026-05-03 20:21:00 | 0 | 0 | 92 | 0 | 28 | AT THE GATE |